Time;durP1;ratioP1;P1;durP2;ratioP2;P2;SDS_P1;SDS_P2;PMS_P1;PMS_P2;Temp;Humidity;BMP_temperature;BMP_pressure;BME280_temperature;BME280_humidity;BME280_pressure;Samples;Min_cycle;Max_cycle;Signal;HPM_P1;HPM_P2
2022/04/01 00:02:18;;;;;;;28.07;13.50;;;4.50;99.90;;;;;;5048178;28;20186;-59
2022/04/01 00:04:44;;;;;;;27.23;13.73;;;4.50;99.90;;;;;;5044607;28;20449;-57
2022/04/01 00:07:10;;;;;;;24.10;13.23;;;4.50;99.90;;;;;;5046733;28;20261;-58
2022/04/01 00:09:37;;;;;;;27.67;14.10;;;4.50;99.90;;;;;;5050497;28;20488;-58
2022/04/01 00:12:06;;;;;;;25.77;13.13;;;4.50;99.90;;;;;;5034420;28;20509;-57
2022/04/01 00:14:32;;;;;;;22.57;12.67;;;4.50;99.90;;;;;;5043181;28;20432;-58
2022/04/01 00:16:59;;;;;;;27.23;13.47;;;4.50;99.90;;;;;;5044376;28;20446;-57
2022/04/01 00:19:25;;;;;;;24.17;12.10;;;4.50;99.90;;;;;;5042918;28;20293;-58
2022/04/01 00:21:51;;;;;;;22.80;12.80;;;4.50;99.90;;;;;;5044927;28;20433;-57
2022/04/01 00:24:17;;;;;;;25.83;13.00;;;4.50;99.90;;;;;;5047792;28;20424;-57
2022/04/01 00:26:45;;;;;;;21.37;11.87;;;4.50;99.90;;;;;;5049810;28;20577;-58
2022/04/01 00:29:17;;;;;;;20.73;11.43;;;4.50;99.90;;;;;;5047810;28;20476;-57
2022/04/01 00:31:59;;;;;;;24.93;11.73;;;4.50;99.90;;;;;;5042907;28;20935;-58
2022/04/01 00:34:29;;;;;;;21.43;11.90;;;4.50;99.90;;;;;;5049803;28;20920;-57
2022/04/01 00:36:57;;;;;;;23.47;12.33;;;4.40;99.90;;;;;;5042524;28;20527;-57
2022/04/01 00:39:25;;;;;;;25.40;12.27;;;4.40;99.90;;;;;;5041735;28;20476;-58
2022/04/01 00:41:51;;;;;;;25.27;13.50;;;4.40;99.90;;;;;;5045002;28;20430;-57
2022/04/01 00:44:18;;;;;;;24.70;12.80;;;4.40;99.90;;;;;;5042935;28;20448;-57
2022/04/01 00:46:47;;;;;;;25.27;11.60;;;4.40;99.90;;;;;;5056901;28;20492;-57
2022/04/01 00:49:13;;;;;;;26.27;12.40;;;4.40;99.90;;;;;;5057367;28;20453;-58
2022/04/01 00:51:42;;;;;;;25.97;13.03;;;4.50;99.90;;;;;;5053271;28;21302;-58
2022/04/01 00:54:09;;;;;;;22.57;11.73;;;4.50;99.90;;;;;;5040469;28;20438;-58
2022/04/01 00:56:36;;;;;;;21.43;11.63;;;4.50;99.90;;;;;;5033893;28;20887;-57
2022/04/01 00:59:03;;;;;;;20.90;11.77;;;4.50;99.90;;;;;;5043337;28;20457;-57
2022/04/01 01:01:30;;;;;;;23.93;12.80;;;4.40;99.90;;;;;;5048063;28;20441;-57
2022/04/01 01:04:07;;;;;;;25.77;12.33;;;4.40;99.90;;;;;;5043115;28;20448;-56
2022/04/01 01:06:37;;;;;;;24.23;12.63;;;4.40;99.90;;;;;;5046583;28;20469;-58
2022/04/01 01:09:03;;;;;;;23.97;13.10;;;4.50;99.90;;;;;;5041533;28;20457;-58
2022/04/01 01:11:31;;;;;;;28.50;13.03;;;4.40;99.90;;;;;;5055145;28;20413;-58
2022/04/01 01:13:57;;;;;;;23.83;13.60;;;4.40;99.90;;;;;;5058759;28;20440;-58
2022/04/01 01:16:23;;;;;;;23.80;13.10;;;4.40;99.90;;;;;;5059142;28;20553;-58
2022/04/01 01:19:07;;;;;;;27.67;14.30;;;4.40;99.90;;;;;;5055340;28;20865;-58
2022/04/01 01:21:33;;;;;;;26.47;12.90;;;4.40;99.90;;;;;;5041017;28;20746;-58
2022/04/01 01:24:04;;;;;;;27.00;13.90;;;4.40;99.90;;;;;;5047756;28;20472;-59
2022/04/01 01:26:34;;;;;;;27.33;14.73;;;4.40;99.90;;;;;;5053019;28;20923;-58
2022/04/01 01:29:00;;;;;;;24.33;12.90;;;4.40;99.90;;;;;;5042037;28;21002;-57
2022/04/01 01:31:27;;;;;;;22.27;12.03;;;4.40;99.90;;;;;;5049888;28;20430;-58
2022/04/01 01:33:57;;;;;;;23.50;11.67;;;4.40;99.90;;;;;;5049936;28;20494;-58
2022/04/01 01:36:26;;;;;;;19.13;10.00;;;4.50;99.90;;;;;;5045475;28;20549;-57
2022/04/01 01:38:52;;;;;;;21.03;10.43;;;4.40;99.90;;;;;;5042609;28;20446;-58
2022/04/01 01:41:18;;;;;;;22.03;11.80;;;4.40;99.90;;;;;;5042253;28;20442;-58
2022/04/01 01:43:44;;;;;;;18.93;11.40;;;4.50;99.90;;;;;;5043320;28;21028;-58
2022/04/01 01:46:10;;;;;;;20.00;11.10;;;4.40;99.90;;;;;;5038371;28;20433;-57
2022/04/01 01:48:36;;;;;;;18.37;10.93;;;4.40;99.90;;;;;;5047321;28;20205;-58
2022/04/01 01:56:44;;;;;;;20.47;11.73;;;4.50;99.90;;;;;;5046797;28;20480;-57
2022/04/01 01:59:13;;;;;;;21.40;12.20;;;4.40;99.90;;;;;;5046773;28;20591;-57
2022/04/01 02:01:40;;;;;;;24.43;12.50;;;4.40;99.90;;;;;;5045908;28;20504;-56
2022/04/01 02:04:06;;;;;;;23.90;13.50;;;4.40;99.90;;;;;;5043852;28;20461;-57
2022/04/01 02:06:33;;;;;;;30.60;14.20;;;4.40;99.90;;;;;;5040910;28;20433;-57
2022/04/01 02:08:59;;;;;;;27.77;14.97;;;4.50;99.90;;;;;;5046717;28;20510;-57
2022/04/01 02:11:25;;;;;;;28.40;14.53;;;4.40;99.90;;;;;;5043777;28;20437;-57
2022/04/01 02:13:52;;;;;;;28.30;13.70;;;4.40;99.90;;;;;;5057887;28;20479;-57
2022/04/01 02:16:18;;;;;;;23.10;12.77;;;4.40;99.90;;;;;;5042906;28;20536;-57
2022/04/01 02:18:45;;;;;;;27.53;15.43;;;4.40;99.90;;;;;;5046391;28;21051;-57
2022/04/01 02:21:11;;;;;;;28.40;14.97;;;4.40;99.90;;;;;;5047791;28;20433;-57
2022/04/01 02:23:38;;;;;;;29.40;15.47;;;4.40;99.90;;;;;;5058040;28;20493;-58
2022/04/01 02:26:05;;;;;;;29.07;15.33;;;4.50;99.90;;;;;;5054796;28;20449;-57
2022/04/01 02:28:31;;;;;;;27.00;15.83;;;4.40;99.90;;;;;;5053188;28;20458;-57
2022/04/01 02:30:57;;;;;;;33.20;16.23;;;4.40;99.90;;;;;;5053693;28;20472;-58
2022/04/01 02:33:22;;;;;;;32.30;16.60;;;4.40;99.90;;;;;;5053269;28;20425;-57
2022/04/01 02:35:48;;;;;;;25.33;15.00;;;4.40;99.90;;;;;;5040984;28;20202;-58
2022/04/01 02:38:14;;;;;;;30.93;15.50;;;4.40;99.90;;;;;;5047052;28;20187;-57
2022/04/01 02:40:39;;;;;;;28.70;15.43;;;4.40;99.90;;;;;;5046071;28;20186;-57
2022/04/01 02:43:05;;;;;;;36.30;16.67;;;4.40;99.90;;;;;;5043675;28;20179;-58
2022/04/01 02:45:31;;;;;;;29.73;15.00;;;4.40;99.90;;;;;;5044571;28;20198;-57
2022/04/01 02:47:56;;;;;;;29.00;14.10;;;4.40;99.90;;;;;;5045008;28;20674;-59
2022/04/01 02:50:22;;;;;;;32.37;14.83;;;4.40;99.90;;;;;;5042477;28;20206;-57
2022/04/01 02:52:48;;;;;;;27.87;13.37;;;4.40;99.90;;;;;;5044130;28;20182;-57
2022/04/01 02:55:13;;;;;;;31.70;14.93;;;4.40;99.90;;;;;;5044824;28;20484;-58
2022/04/01 02:57:39;;;;;;;31.60;15.03;;;4.40;99.90;;;;;;5045808;28;20202;-57
2022/04/01 03:00:09;;;;;;;30.00;14.37;;;4.40;99.90;;;;;;5053101;28;20225;-57
2022/04/01 03:02:38;;;;;;;27.17;13.53;;;4.40;99.90;;;;;;5042031;28;20628;-57
2022/04/01 03:05:05;;;;;;;29.50;14.90;;;4.40;99.90;;;;;;5038492;28;20473;-58
2022/04/01 03:07:32;;;;;;;29.03;15.70;;;4.40;99.90;;;;;;5041650;28;20466;-58
2022/04/01 03:09:58;;;;;;;31.77;15.33;;;4.40;99.90;;;;;;5040887;28;20432;-58
2022/04/01 03:12:25;;;;;;;31.57;15.40;;;4.40;99.90;;;;;;5040208;28;20516;-58
2022/04/01 03:14:51;;;;;;;26.93;13.50;;;4.40;99.90;;;;;;5045940;28;20269;-57
2022/04/01 03:17:17;;;;;;;31.40;14.97;;;4.40;99.90;;;;;;5044060;28;21165;-57
2022/04/01 03:19:44;;;;;;;29.53;15.67;;;4.30;99.90;;;;;;5043290;28;20613;-57
2022/04/01 03:22:09;;;;;;;31.20;14.30;;;4.30;99.90;;;;;;5052599;28;20197;-57
2022/04/01 03:24:35;;;;;;;28.83;15.70;;;4.30;99.90;;;;;;5047772;28;20983;-58
2022/04/01 03:27:02;;;;;;;36.50;15.43;;;4.30;99.90;;;;;;5060584;22;20179;-58
2022/04/01 03:29:28;;;;;;;29.70;14.87;;;4.30;99.90;;;;;;5022059;28;20669;-58
2022/04/01 03:31:54;;;;;;;29.57;14.80;;;4.30;99.90;;;;;;5027091;28;20572;-60
2022/04/01 03:34:20;;;;;;;31.43;14.53;;;4.30;99.90;;;;;;5039958;28;20517;-60
2022/04/01 03:36:46;;;;;;;29.97;14.63;;;4.30;99.90;;;;;;5030087;28;20208;-60
2022/04/01 03:39:12;;;;;;;28.07;14.50;;;4.40;99.90;;;;;;5027700;28;20485;-61
2022/04/01 03:41:39;;;;;;;27.33;13.77;;;4.30;99.90;;;;;;5026611;28;20531;-60
2022/04/01 03:44:05;;;;;;;27.80;14.30;;;4.30;99.90;;;;;;5021977;28;20453;-60
2022/04/01 03:47:11;;;;;;;26.70;13.53;;;4.30;99.90;;;;;;5027794;28;20437;-61
2022/04/01 03:49:50;;;;;;;28.90;13.03;;;4.30;99.90;;;;;;5023676;28;20431;-60
2022/04/01 03:52:19;;;;;;;31.03;14.50;;;4.30;99.90;;;;;;5030341;28;20442;-60
2022/04/01 03:54:47;;;;;;;22.40;12.43;;;4.30;99.90;;;;;;5028764;28;20436;-60
2022/04/01 03:57:15;;;;;;;26.93;13.03;;;4.20;99.90;;;;;;5021691;28;20439;-60
2022/04/01 03:59:41;;;;;;;18.67;10.60;;;4.30;99.90;;;;;;5023853;28;20429;-60
2022/04/01 04:02:12;;;;;;;17.20;10.03;;;4.20;99.90;;;;;;5025185;28;20541;-60
2022/04/01 04:04:39;;;;;;;19.10;10.87;;;4.20;99.90;;;;;;5026714;28;20457;-61
2022/04/01 04:07:09;;;;;;;21.60;10.77;;;4.20;99.90;;;;;;5019208;28;20465;-58
2022/04/01 04:09:39;;;;;;;17.57;10.67;;;4.20;99.90;;;;;;5021345;28;21078;-59
2022/04/01 04:12:12;;;;;;;19.97;10.57;;;4.20;99.90;;;;;;5010670;28;20835;-54
2022/04/01 04:14:40;;;;;;;16.83;10.20;;;4.20;99.90;;;;;;5012300;28;20815;-56
2022/04/01 04:17:11;;;;;;;16.60;8.97;;;4.20;99.90;;;;;;5018910;28;20437;-57
2022/04/01 04:20:01;;;;;;;17.33;10.03;;;4.20;99.90;;;;;;5024824;28;20474;-57
2022/04/01 04:22:35;;;;;;;15.53;9.23;;;4.20;99.90;;;;;;5013511;28;20465;-57
2022/04/01 04:25:10;;;;;;;18.23;9.40;;;4.20;99.90;;;;;;5021457;28;20431;-59
2022/04/01 04:27:38;;;;;;;18.93;10.10;;;4.20;99.90;;;;;;5026646;28;20469;-59
2022/04/01 04:30:08;;;;;;;17.63;9.00;;;4.20;99.90;;;;;;5019666;28;20805;-59
2022/04/01 04:32:37;;;;;;;19.47;10.07;;;4.30;99.90;;;;;;5016630;28;20461;-59
2022/04/01 04:35:05;;;;;;;21.43;10.50;;;4.30;99.90;;;;;;5014248;28;20494;-59
2022/04/01 04:37:35;;;;;;;18.70;9.57;;;4.30;99.90;;;;;;5009361;28;20606;-59
2022/04/01 04:40:01;;;;;;;18.87;10.27;;;4.30;99.90;;;;;;5017695;28;20435;-58
2022/04/01 04:42:28;;;;;;;20.13;10.20;;;4.30;99.90;;;;;;5020166;28;20473;-60
2022/04/01 04:44:54;;;;;;;21.40;11.50;;;4.30;99.90;;;;;;5022719;28;20441;-58
2022/04/01 04:47:29;;;;;;;22.67;11.23;;;4.20;99.90;;;;;;5021050;28;20447;-59
2022/04/01 04:49:57;;;;;;;17.80;9.80;;;4.20;99.90;;;;;;5023209;28;21011;-61
2022/04/01 04:52:30;;;;;;;19.13;9.53;;;4.30;99.90;;;;;;5021816;28;20452;-58
2022/04/01 04:54:56;;;;;;;19.97;10.50;;;4.20;99.90;;;;;;5024101;28;20493;-58
2022/04/01 04:57:22;;;;;;;22.50;9.73;;;4.20;99.90;;;;;;5020878;28;20463;-58
2022/04/01 04:59:49;;;;;;;15.80;9.87;;;4.20;99.90;;;;;;5008541;28;20473;-57
2022/04/01 05:02:30;;;;;;;19.03;9.23;;;4.20;99.90;;;;;;5011115;28;20522;-58
2022/04/01 05:05:02;;;;;;;18.23;9.60;;;4.20;99.90;;;;;;5014098;28;20962;-58
2022/04/01 05:07:40;;;;;;;18.83;10.50;;;4.10;99.90;;;;;;5017167;28;20455;-59
2022/04/01 05:10:08;;;;;;;19.10;9.90;;;4.20;99.90;;;;;;5013124;28;20419;-58
2022/04/01 05:12:39;;;;;;;16.50;9.60;;;4.10;99.90;;;;;;5017382;28;20780;-58
2022/04/01 05:15:10;;;;;;;17.20;8.93;;;4.10;99.90;;;;;;5014796;28;20506;-60
2022/04/01 05:17:56;;;;;;;15.53;9.47;;;4.10;99.90;;;;;;5023151;28;20447;-59
2022/04/01 05:20:28;;;;;;;18.37;9.57;;;4.10;99.90;;;;;;5020692;28;20442;-58
2022/04/01 05:22:54;;;;;;;15.60;8.97;;;4.10;99.90;;;;;;5025688;28;20415;-59
2022/04/01 05:25:22;;;;;;;18.73;9.90;;;4.10;99.90;;;;;;5024210;28;20445;-59
2022/04/01 05:27:57;;;;;;;17.73;10.03;;;4.00;99.90;;;;;;5022467;28;20466;-59
2022/04/01 05:30:26;;;;;;;20.20;9.80;;;4.00;99.90;;;;;;5016847;28;20450;-60
2022/04/01 05:33:15;;;;;;;15.20;9.00;;;4.00;99.90;;;;;;5020841;28;20430;-59
2022/04/01 05:35:43;;;;;;;16.27;8.20;;;4.00;99.90;;;;;;5018845;28;20467;-59
2022/04/01 05:38:09;;;;;;;13.97;8.27;;;4.10;99.90;;;;;;5021849;28;20469;-59
2022/04/01 05:40:36;;;;;;;15.70;8.57;;;4.10;99.90;;;;;;5021664;28;21161;-59
2022/04/01 05:43:04;;;;;;;14.70;8.47;;;4.10;99.90;;;;;;5023234;28;20186;-60
2022/04/01 05:45:30;;;;;;;14.23;8.77;;;4.10;99.90;;;;;;5023968;28;20533;-61
2022/04/01 05:47:58;;;;;;;12.77;7.53;;;4.10;99.90;;;;;;5021513;28;20473;-60
2022/04/01 05:50:25;;;;;;;16.10;8.30;;;4.10;99.90;;;;;;5023141;28;20439;-60
2022/04/01 05:52:53;;;;;;;14.63;7.90;;;4.10;99.90;;;;;;5017101;28;20444;-60
2022/04/01 05:55:24;;;;;;;15.33;8.77;;;4.00;99.90;;;;;;5015140;28;20462;-60
2022/04/01 05:57:50;;;;;;;12.03;7.50;;;4.00;99.90;;;;;;5022890;28;20883;-60
2022/04/01 06:00:16;;;;;;;11.20;6.93;;;4.10;99.90;;;;;;5019700;28;20546;-60
2022/04/01 06:02:44;;;;;;;14.70;7.90;;;4.10;99.90;;;;;;5024323;28;20176;-61
2022/04/01 06:05:33;;;;;;;13.97;7.60;;;4.10;99.90;;;;;;5024890;28;20429;-61
2022/04/01 06:08:18;;;;;;;17.30;7.50;;;4.10;99.90;;;;;;5022446;28;20556;-60
2022/04/01 06:10:53;;;;;;;14.20;8.57;;;4.10;99.90;;;;;;5029345;28;20462;-61
2022/04/01 06:13:22;;;;;;;13.67;7.83;;;4.10;99.90;;;;;;5018157;28;20517;-65
2022/04/01 06:15:58;;;;;;;11.90;7.30;;;4.10;99.90;;;;;;5023551;28;20462;-61
2022/04/01 06:18:39;;;;;;;13.60;7.50;;;4.10;99.90;;;;;;5016758;28;20875;-61
2022/04/01 06:21:07;;;;;;;12.00;7.27;;;4.10;99.90;;;;;;5018610;28;21101;-61
2022/04/01 06:23:36;;;;;;;13.23;8.00;;;4.20;99.90;;;;;;5007593;28;20810;-62
2022/04/01 06:26:05;;;;;;;13.87;8.43;;;4.20;99.90;;;;;;5014681;28;20438;-61
2022/04/01 06:28:38;;;;;;;13.80;8.60;;;4.20;99.90;;;;;;5026677;28;20472;-61
2022/04/01 06:31:06;;;;;;;14.20;8.07;;;4.20;99.90;;;;;;5029421;28;20402;-61
2022/04/01 06:33:37;;;;;;;14.20;9.03;;;4.20;99.90;;;;;;5014719;28;20838;-61
2022/04/01 06:36:07;;;;;;;12.70;7.23;;;4.30;99.90;;;;;;5022432;28;20462;-61
2022/04/01 06:38:52;;;;;;;12.23;6.80;;;4.30;99.90;;;;;;5029510;28;20509;-61
2022/04/01 06:41:20;;;;;;;12.50;7.40;;;4.30;99.90;;;;;;5013286;28;20438;-61
2022/04/01 06:43:47;;;;;;;13.73;8.30;;;4.40;99.90;;;;;;5026822;28;20426;-61
2022/04/01 06:46:13;;;;;;;10.10;6.80;;;4.40;99.90;;;;;;5027741;28;20418;-62
2022/04/01 06:48:40;;;;;;;10.83;6.70;;;4.40;99.90;;;;;;5028241;28;20442;-61
2022/04/01 06:51:08;;;;;;;10.10;6.17;;;4.40;99.90;;;;;;5015364;28;20675;-60
2022/04/01 06:53:36;;;;;;;14.07;7.10;;;4.40;99.90;;;;;;5025307;28;20512;-61
2022/04/01 06:56:04;;;;;;;11.77;6.20;;;4.40;99.90;;;;;;5026239;28;20468;-61
2022/04/01 06:58:31;;;;;;;9.97;5.47;;;4.40;99.90;;;;;;5009897;28;20459;-62
2022/04/01 07:00:57;;;;;;;10.90;5.97;;;4.40;99.90;;;;;;5021319;28;20433;-61
2022/04/01 07:03:23;;;;;;;7.57;4.83;;;4.40;99.90;;;;;;5022917;28;20433;-61
2022/04/01 07:05:51;;;;;;;8.93;5.67;;;4.30;99.90;;;;;;5007835;28;20184;-61
2022/04/01 07:08:17;;;;;;;7.43;4.80;;;4.30;99.90;;;;;;5009700;28;20731;-61
2022/04/01 07:10:45;;;;;;;8.00;5.30;;;4.30;99.90;;;;;;5022213;28;20469;-61
2022/04/01 07:13:10;;;;;;;7.07;4.93;;;4.30;99.90;;;;;;5025472;28;20838;-61
2022/04/01 07:15:36;;;;;;;8.60;4.70;;;4.30;99.90;;;;;;5013176;28;20466;-61
2022/04/01 07:18:02;;;;;;;6.73;5.00;;;4.30;99.90;;;;;;5018173;28;20211;-59
2022/04/01 07:20:29;;;;;;;6.93;4.70;;;4.30;99.90;;;;;;5022344;28;20683;-61
2022/04/01 07:22:55;;;;;;;6.20;4.63;;;4.40;99.90;;;;;;5028945;28;20842;-61
2022/04/01 07:25:22;;;;;;;6.03;4.20;;;4.40;99.90;;;;;;5018024;28;20435;-60
2022/04/01 07:27:52;;;;;;;6.00;4.50;;;4.40;99.90;;;;;;5025959;28;20482;-62
2022/04/01 07:30:17;;;;;;;6.40;4.83;;;4.40;99.90;;;;;;5025366;28;20442;-61
2022/04/01 07:32:44;;;;;;;6.30;4.67;;;4.30;99.90;;;;;;5027491;28;20489;-61
2022/04/01 07:35:13;;;;;;;7.47;4.83;;;4.30;99.90;;;;;;5008793;28;20207;-60
2022/04/01 07:37:39;;;;;;;6.33;4.90;;;4.30;99.90;;;;;;5009775;28;20526;-61
2022/04/01 07:40:06;;;;;;;6.27;4.33;;;4.30;99.90;;;;;;5012146;28;20487;-61
2022/04/01 07:42:32;;;;;;;6.53;4.30;;;4.30;99.90;;;;;;5006232;28;20489;-60
2022/04/01 07:44:57;;;;;;;5.97;4.27;;;4.30;99.90;;;;;;5013411;28;20427;-60
2022/04/01 07:47:24;;;;;;;6.10;4.40;;;4.30;99.90;;;;;;5010568;28;20435;-61
2022/04/01 07:49:51;;;;;;;5.40;4.10;;;4.30;99.90;;;;;;5021341;28;20263;-61
2022/04/01 07:52:19;;;;;;;8.57;4.87;;;4.30;99.90;;;;;;5028086;28;20814;-61
2022/04/01 07:54:45;;;;;;;6.00;3.60;;;4.30;99.90;;;;;;5028605;28;20410;-62
2022/04/01 07:57:13;;;;;;;5.80;4.50;;;4.30;99.90;;;;;;5019276;28;20998;-61
2022/04/01 07:59:39;;;;;;;8.00;4.70;;;4.40;99.90;;;;;;5008636;28;20908;-61
2022/04/01 08:02:04;;;;;;;7.27;4.80;;;4.40;99.90;;;;;;5008656;28;20494;-61
2022/04/01 08:04:30;;;;;;;6.70;4.40;;;4.40;99.90;;;;;;5030266;28;20759;-61
2022/04/01 08:06:57;;;;;;;5.27;4.40;;;4.40;99.90;;;;;;5028016;28;20758;-60
2022/04/01 08:09:24;;;;;;;7.07;5.00;;;4.30;99.90;;;;;;5012963;28;20173;-61
2022/04/01 08:11:50;;;;;;;7.33;4.63;;;4.30;99.90;;;;;;5031995;28;20414;-61
2022/04/01 08:14:17;;;;;;;7.03;5.20;;;4.30;99.90;;;;;;5029661;28;20426;-60
2022/04/01 08:16:43;;;;;;;5.87;4.60;;;4.30;99.90;;;;;;5025807;28;20469;-61
2022/04/01 08:19:09;;;;;;;6.90;5.00;;;4.30;99.90;;;;;;5027519;28;20489;-60
2022/04/01 08:21:35;;;;;;;6.13;4.90;;;4.30;99.90;;;;;;5015574;28;20931;-61
2022/04/01 08:24:00;;;;;;;7.40;4.80;;;4.30;99.90;;;;;;5030318;28;20438;-60
2022/04/01 08:26:27;;;;;;;7.63;4.77;;;4.20;99.90;;;;;;5019322;28;20484;-62
2022/04/01 08:28:53;;;;;;;9.77;4.37;;;4.20;99.90;;;;;;5029667;28;20220;-61
2022/04/01 08:31:20;;;;;;;5.33;3.80;;;4.20;99.90;;;;;;5030742;28;20403;-62
2022/04/01 08:33:46;;;;;;;5.63;3.43;;;4.20;99.90;;;;;;5030687;28;20413;-60
2022/04/01 08:36:12;;;;;;;5.00;3.77;;;4.20;99.90;;;;;;5027972;28;21128;-61
2022/04/01 08:38:40;;;;;;;2.73;2.50;;;4.20;99.90;;;;;;5018023;28;20478;-61
2022/04/01 08:41:07;;;;;;;3.27;2.90;;;4.20;99.90;;;;;;5028997;28;20529;-60
2022/04/01 08:43:34;;;;;;;4.20;3.03;;;4.20;99.90;;;;;;5029772;28;20498;-61
2022/04/01 08:46:04;;;;;;;4.13;3.13;;;4.10;99.90;;;;;;5028782;28;20782;-61
2022/04/01 08:48:30;;;;;;;6.37;4.37;;;4.10;99.90;;;;;;5027400;28;20861;-61
2022/04/01 08:50:56;;;;;;;7.43;4.30;;;4.00;99.90;;;;;;5027133;28;20793;-61
2022/04/01 08:53:23;;;;;;;6.93;4.57;;;3.90;99.90;;;;;;5018371;28;20477;-61
2022/04/01 08:55:51;;;;;;;8.07;5.00;;;3.90;99.90;;;;;;5025287;28;20494;-61
2022/04/01 08:58:19;;;;;;;8.03;5.07;;;3.80;99.90;;;;;;5027661;28;20454;-60
2022/04/01 09:00:49;;;;;;;6.27;4.43;;;3.80;99.90;;;;;;5031619;28;20492;-61
2022/04/01 09:03:17;;;;;;;6.20;4.13;;;3.80;99.90;;;;;;5030862;28;20398;-61
2022/04/01 09:05:51;;;;;;;6.13;4.30;;;3.80;99.90;;;;;;5024615;28;20431;-60
2022/04/01 09:08:23;;;;;;;8.07;4.37;;;3.80;99.90;;;;;;5023824;28;20501;-60
2022/04/01 09:10:51;;;;;;;6.37;4.60;;;3.80;99.90;;;;;;5031053;28;20461;-61
2022/04/01 09:13:17;;;;;;;7.10;5.10;;;3.90;99.90;;;;;;5021979;28;20422;-60
2022/04/01 09:15:43;;;;;;;7.63;4.87;;;3.90;99.90;;;;;;5011677;28;20466;-61
2022/04/01 09:18:10;;;;;;;10.20;5.60;;;3.90;99.90;;;;;;5029121;28;20442;-60
2022/04/01 09:20:44;;;;;;;9.00;6.23;;;3.90;99.90;;;;;;5024841;28;20946;-60
2022/04/01 09:23:10;;;;;;;8.60;4.97;;;4.00;99.90;;;;;;5024704;28;20414;-60
2022/04/01 09:25:36;;;;;;;10.20;6.10;;;4.00;99.90;;;;;;5019232;28;20435;-61
2022/04/01 09:28:01;;;;;;;9.47;5.80;;;4.00;99.90;;;;;;5030415;28;20963;-61
2022/04/01 09:30:29;;;;;;;9.10;5.80;;;4.00;99.90;;;;;;5020454;28;20258;-61
2022/04/01 09:32:58;;;;;;;9.73;5.80;;;4.00;99.90;;;;;;5010786;28;20192;-62
2022/04/01 09:35:26;;;;;;;9.10;5.53;;;4.00;99.90;;;;;;5024603;28;21052;-59
2022/04/01 09:37:54;;;;;;;11.10;6.57;;;4.00;99.90;;;;;;5045358;23;20462;-59
2022/04/01 09:40:22;;;;;;;10.30;6.57;;;4.10;99.90;;;;;;5025626;28;20510;-58
2022/04/01 09:42:49;;;;;;;12.47;6.53;;;4.20;99.90;;;;;;5022994;28;20418;-59
2022/04/01 09:45:28;;;;;;;10.33;6.00;;;4.20;99.90;;;;;;5027766;28;20593;-58
2022/04/01 09:48:04;;;;;;;10.20;6.67;;;4.30;99.90;;;;;;5030788;28;20997;-60
2022/04/01 09:50:34;;;;;;;13.50;7.17;;;4.30;99.90;;;;;;5010852;28;20430;-59
2022/04/01 09:53:25;;;;;;;11.17;6.30;;;4.20;99.90;;;;;;5006889;28;20419;-60
2022/04/01 09:55:52;;;;;;;10.83;6.20;;;4.30;99.90;;;;;;5008260;28;21110;-61
2022/04/01 09:58:20;;;;;;;11.20;6.83;;;4.30;99.90;;;;;;5004162;28;20796;-59
2022/04/01 10:00:47;;;;;;;8.50;6.13;;;4.20;99.90;;;;;;5008694;28;20989;-60
2022/04/01 10:03:15;;;;;;;14.27;7.37;;;4.30;99.90;;;;;;5010311;28;20466;-65
2022/04/01 10:05:41;;;;;;;10.17;6.07;;;4.30;99.90;;;;;;4999627;28;20819;-59
2022/04/01 10:08:10;;;;;;;9.83;6.80;;;4.20;99.90;;;;;;5005519;28;20526;-59
2022/04/01 10:10:38;;;;;;;8.60;5.97;;;4.20;99.90;;;;;;5006837;28;20427;-59
2022/04/01 10:13:24;;;;;;;10.13;6.60;;;4.20;99.90;;;;;;5002990;28;20428;-59
2022/04/01 10:15:50;;;;;;;10.13;6.33;;;4.20;99.90;;;;;;5007900;28;20467;-60
2022/04/01 10:18:19;;;;;;;10.10;6.60;;;4.20;99.90;;;;;;5005663;28;20983;-60
2022/04/01 10:20:45;;;;;;;9.80;6.13;;;4.20;99.90;;;;;;5007990;28;20419;-59
2022/04/01 10:23:12;;;;;;;7.97;5.83;;;4.20;99.90;;;;;;5003882;28;20438;-60
2022/04/01 10:25:37;;;;;;;9.57;6.20;;;4.20;99.90;;;;;;4996174;28;20422;-58
2022/04/01 10:28:06;;;;;;;8.40;6.30;;;4.20;99.90;;;;;;5000130;28;20583;-59
2022/04/01 10:30:33;;;;;;;12.47;6.30;;;4.20;99.90;;;;;;5002139;28;20212;-60
2022/04/01 10:32:59;;;;;;;10.60;6.43;;;4.20;99.90;;;;;;5003719;28;20431;-60
2022/04/01 10:35:36;;;;;;;8.90;5.83;;;4.20;99.90;;;;;;5007832;28;20462;-59
2022/04/01 10:38:05;;;;;;;8.10;5.40;;;4.20;99.90;;;;;;5006353;28;20467;-61
2022/04/01 10:40:32;;;;;;;8.00;5.10;;;4.20;99.90;;;;;;5003044;28;20470;-59
2022/04/01 10:43:19;;;;;;;6.10;4.70;;;4.30;99.90;;;;;;5008530;28;20450;-59
2022/04/01 10:46:15;;;;;;;9.70;5.93;;;4.30;99.90;;;;;;5007355;28;20900;-57
2022/04/01 10:52:18;;;;;;;8.00;4.80;;;4.30;99.90;;;;;;5009555;28;20449;-58
2022/04/01 10:54:46;;;;;;;6.47;4.33;;;4.40;99.90;;;;;;5005427;28;20539;-60
2022/04/01 10:57:37;;;;;;;6.00;4.70;;;4.40;99.90;;;;;;5001071;28;21257;-58
2022/04/01 11:00:08;;;;;;;6.20;4.40;;;4.30;99.90;;;;;;5004838;28;20910;-60
2022/04/01 11:02:34;;;;;;;4.70;3.67;;;4.30;99.90;;;;;;4997367;28;20438;-58
2022/04/01 11:05:19;;;;;;;5.93;4.57;;;4.40;99.90;;;;;;5005389;28;20928;-60
2022/04/01 11:07:45;;;;;;;5.80;4.07;;;4.40;99.90;;;;;;5000934;28;22233;-60
2022/04/01 11:10:25;;;;;;;6.97;5.30;;;4.40;99.90;;;;;;5005904;28;20454;-58
2022/04/01 11:12:52;;;;;;;6.23;4.10;;;4.40;99.90;;;;;;5003820;28;20176;-58
2022/04/01 11:15:24;;;;;;;4.73;4.03;;;4.50;99.90;;;;;;5006426;28;20670;-56
2022/04/01 11:17:56;;;;;;;7.03;5.13;;;4.50;99.90;;;;;;5004317;28;20527;-58
2022/04/01 11:20:22;;;;;;;5.87;4.23;;;4.60;99.90;;;;;;5006124;28;20434;-57
2022/04/01 11:22:54;;;;;;;5.20;3.80;;;4.60;99.90;;;;;;5007229;28;21011;-59
2022/04/01 11:25:22;;;;;;;4.50;3.60;;;4.60;99.90;;;;;;4997826;28;20425;-58
2022/04/01 11:28:04;;;;;;;4.83;4.33;;;4.70;99.90;;;;;;5003868;28;20428;-58
2022/04/01 11:30:35;;;;;;;5.57;4.23;;;4.80;99.90;;;;;;4996726;28;20440;-58
2022/04/01 11:33:12;;;;;;;4.87;3.77;;;4.90;99.90;;;;;;5002410;28;20430;-58
2022/04/01 11:35:41;;;;;;;5.93;4.90;;;4.90;99.90;;;;;;4996905;28;20468;-58
2022/04/01 11:38:15;;;;;;;7.20;4.60;;;4.90;99.90;;;;;;4994059;28;20462;-58
2022/04/01 11:40:43;;;;;;;6.70;5.00;;;4.90;99.90;;;;;;5011128;28;20427;-58
2022/04/01 11:43:11;;;;;;;7.80;5.47;;;4.90;99.90;;;;;;5002143;28;20436;-59
2022/04/01 11:45:40;;;;;;;8.60;5.47;;;4.80;99.90;;;;;;5001210;28;20420;-59
2022/04/01 11:48:17;;;;;;;6.23;4.50;;;4.80;99.90;;;;;;5024757;28;20952;-58
2022/04/01 11:50:45;;;;;;;9.17;4.70;;;4.80;99.90;;;;;;5005403;28;20432;-58
2022/04/01 11:53:29;;;;;;;6.13;4.57;;;4.80;99.90;;;;;;5012452;28;20423;-58
2022/04/01 11:55:56;;;;;;;8.23;5.13;;;4.80;99.90;;;;;;5016107;28;20455;-59
2022/04/01 11:58:23;;;;;;;6.43;4.93;;;4.80;99.90;;;;;;5018361;28;20909;-58
2022/04/01 12:00:49;;;;;;;7.03;5.10;;;4.80;99.90;;;;;;5017985;28;20513;-58
2022/04/01 12:03:18;;;;;;;8.07;5.40;;;4.80;99.90;;;;;;5011579;28;20517;-58
2022/04/01 12:05:44;;;;;;;6.97;5.40;;;4.80;99.90;;;;;;5010635;28;20808;-58
2022/04/01 12:10:59;;;;;;;7.53;5.50;;;4.80;99.90;;;;;;4991882;28;20988;-59
2022/04/01 12:13:27;;;;;;;8.50;6.03;;;4.80;99.90;;;;;;4992862;28;20415;-58
2022/04/01 12:15:54;;;;;;;9.00;6.37;;;4.90;99.90;;;;;;5025540;28;20986;-59
2022/04/01 12:18:22;;;;;;;10.07;7.00;;;4.90;99.90;;;;;;4998904;28;20526;-59
2022/04/01 12:21:01;;;;;;;9.73;6.50;;;4.90;99.90;;;;;;5024402;28;20407;-59
2022/04/01 12:23:32;;;;;;;10.23;6.43;;;4.90;99.90;;;;;;5012132;28;20434;-59
2022/04/01 12:26:00;;;;;;;10.53;6.70;;;4.90;99.90;;;;;;5001855;28;20428;-59
2022/04/01 12:28:40;;;;;;;8.90;6.17;;;4.90;99.90;;;;;;5004003;28;20560;-58
2022/04/01 12:31:21;;;;;;;11.17;7.10;;;4.90;99.90;;;;;;5003072;28;20431;-58
2022/04/01 12:33:50;;;;;;;9.33;6.27;;;4.80;99.90;;;;;;4999249;28;20445;-58
2022/04/01 12:36:18;;;;;;;9.50;5.60;;;4.80;99.90;;;;;;5013801;28;20466;-57
2022/04/01 12:39:00;;;;;;;7.50;5.97;;;4.70;99.90;;;;;;5022959;28;20474;-58
2022/04/01 12:41:26;;;;;;;8.57;5.53;;;4.80;99.90;;;;;;5023203;28;20469;-58
2022/04/01 12:43:53;;;;;;;9.50;6.83;;;4.80;99.90;;;;;;5019697;28;20435;-58
2022/04/01 12:46:20;;;;;;;9.00;5.87;;;4.80;99.90;;;;;;5019248;28;20176;-58
2022/04/01 12:48:49;;;;;;;8.30;5.90;;;4.80;99.90;;;;;;5010030;28;20554;-59
2022/04/01 12:51:25;;;;;;;8.17;5.63;;;4.70;99.90;;;;;;5002335;28;20574;-57
2022/04/01 12:54:12;;;;;;;9.67;6.50;;;4.70;99.90;;;;;;5004477;28;20534;-58
2022/04/01 12:56:42;;;;;;;7.30;5.03;;;4.70;99.90;;;;;;5007805;28;20802;-58
2022/04/01 12:59:10;;;;;;;7.10;5.27;;;4.70;99.90;;;;;;5017706;28;20454;-58
2022/04/01 13:01:42;;;;;;;6.97;5.30;;;4.70;99.90;;;;;;5006188;28;20953;-57
2022/04/01 13:04:16;;;;;;;6.60;5.00;;;4.70;99.90;;;;;;5030107;28;20712;-58
2022/04/01 13:06:41;;;;;;;7.30;5.17;;;4.70;99.90;;;;;;5017328;28;20506;-57
2022/04/01 13:09:08;;;;;;;10.07;6.33;;;4.70;99.90;;;;;;5015832;28;20542;-58
2022/04/01 13:11:44;;;;;;;5.93;5.03;;;4.70;99.90;;;;;;5015745;28;20184;-57